sensor_id;sensor_type;location;lat;lon;timestamp;pressure;altitude;pressure_sealevel;temperature;humidity
58975;BME280;44751;52.236;5.178;2023-02-11T00:00:16;103214.66;;;5.92;100.00
58975;BME280;44751;52.236;5.178;2023-02-11T00:02:43;103217.16;;;5.96;100.00
58975;BME280;44751;52.236;5.178;2023-02-11T00:05:10;103218.38;;;5.90;100.00
58975;BME280;44751;52.236;5.178;2023-02-11T00:07:36;103224.31;;;5.95;100.00
58975;BME280;44751;52.236;5.178;2023-02-11T00:10:04;103217.75;;;6.01;100.00
58975;BME280;44751;52.236;5.178;2023-02-11T00:12:33;103207.19;;;5.98;100.00
58975;BME280;44751;52.236;5.178;2023-02-11T00:15:06;103203.66;;;5.97;100.00
58975;BME280;44751;52.236;5.178;2023-02-11T00:17:33;103193.03;;;5.96;100.00
58975;BME280;44751;52.236;5.178;2023-02-11T00:19:59;103201.50;;;5.88;100.00
58975;BME280;44751;52.236;5.178;2023-02-11T00:22:28;103189.84;;;5.89;100.00
58975;BME280;44751;52.236;5.178;2023-02-11T00:24:54;103206.88;;;5.88;100.00
58975;BME280;44751;52.236;5.178;2023-02-11T00:27:21;103201.19;;;5.78;100.00
58975;BME280;44751;52.236;5.178;2023-02-11T00:29:48;103212.59;;;5.81;100.00
58975;BME280;44751;52.236;5.178;2023-02-11T00:32:14;103218.47;;;5.88;100.00
58975;BME280;44751;52.236;5.178;2023-02-11T00:34:41;103217.25;;;5.78;100.00
58975;BME280;44751;52.236;5.178;2023-02-11T00:37:07;103219.44;;;5.71;100.00
58975;BME280;44751;52.236;5.178;2023-02-11T00:39:42;103229.97;;;5.74;100.00
58975;BME280;44751;52.236;5.178;2023-02-11T00:42:12;103227.72;;;5.82;100.00
58975;BME280;44751;52.236;5.178;2023-02-11T00:44:40;103215.63;;;5.75;100.00
58975;BME280;44751;52.236;5.178;2023-02-11T00:47:06;103214.41;;;5.65;100.00
58975;BME280;44751;52.236;5.178;2023-02-11T00:49:33;103211.94;;;5.62;100.00
58975;BME280;44751;52.236;5.178;2023-02-11T00:52:01;103210.38;;;5.58;100.00
58975;BME280;44751;52.236;5.178;2023-02-11T00:54:27;103208.81;;;5.69;100.00
58975;BME280;44751;52.236;5.178;2023-02-11T00:56:53;103202.53;;;5.54;100.00
58975;BME280;44751;52.236;5.178;2023-02-11T00:59:22;103200.25;;;5.63;100.00
58975;BME280;44751;52.236;5.178;2023-02-11T01:01:49;103183.94;;;5.51;100.00
58975;BME280;44751;52.236;5.178;2023-02-11T01:04:15;103184.91;;;5.50;100.00
58975;BME280;44751;52.236;5.178;2023-02-11T01:06:43;103177.63;;;5.52;100.00
58975;BME280;44751;52.236;5.178;2023-02-11T01:09:09;103183.88;;;5.53;100.00
58975;BME280;44751;52.236;5.178;2023-02-11T01:11:36;103182.16;;;5.52;100.00
58975;BME280;44751;52.236;5.178;2023-02-11T01:14:02;103170.81;;;5.47;100.00
58975;BME280;44751;52.236;5.178;2023-02-11T01:16:34;103172.66;;;5.46;100.00
58975;BME280;44751;52.236;5.178;2023-02-11T01:19:01;103174.44;;;5.46;100.00
58975;BME280;44751;52.236;5.178;2023-02-11T01:21:28;103182.31;;;5.49;100.00
58975;BME280;44751;52.236;5.178;2023-02-11T01:23:54;103179.03;;;5.43;100.00
58975;BME280;44751;52.236;5.178;2023-02-11T01:26:21;103188.13;;;5.41;100.00
58975;BME280;44751;52.236;5.178;2023-02-11T01:28:54;103189.75;;;5.43;100.00
58975;BME280;44751;52.236;5.178;2023-02-11T01:31:21;103193.97;;;5.32;100.00
58975;BME280;44751;52.236;5.178;2023-02-11T01:33:47;103199.94;;;5.37;100.00
58975;BME280;44751;52.236;5.178;2023-02-11T01:36:14;103195.00;;;5.29;100.00
58975;BME280;44751;52.236;5.178;2023-02-11T01:38:43;103191.56;;;5.27;100.00
58975;BME280;44751;52.236;5.178;2023-02-11T01:41:12;103193.22;;;5.29;100.00
58975;BME280;44751;52.236;5.178;2023-02-11T01:43:42;103193.13;;;5.31;100.00
58975;BME280;44751;52.236;5.178;2023-02-11T01:46:34;103186.91;;;5.30;100.00
58975;BME280;44751;52.236;5.178;2023-02-11T01:49:08;103190.38;;;5.33;100.00
58975;BME280;44751;52.236;5.178;2023-02-11T01:51:43;103197.59;;;5.30;100.00
58975;BME280;44751;52.236;5.178;2023-02-11T01:54:15;103184.47;;;5.26;100.00
58975;BME280;44751;52.236;5.178;2023-02-11T01:57:01;103190.78;;;5.25;100.00
58975;BME280;44751;52.236;5.178;2023-02-11T02:03:04;103201.56;;;5.07;100.00
58975;BME280;44751;52.236;5.178;2023-02-11T02:05:39;103193.78;;;5.02;100.00
58975;BME280;44751;52.236;5.178;2023-02-11T02:08:20;103192.06;;;5.01;100.00
58975;BME280;44751;52.236;5.178;2023-02-11T02:10:50;103187.47;;;5.03;100.00
58975;BME280;44751;52.236;5.178;2023-02-11T02:13:22;103177.97;;;4.98;100.00
58975;BME280;44751;52.236;5.178;2023-02-11T02:15:51;103176.16;;;4.98;100.00
58975;BME280;44751;52.236;5.178;2023-02-11T02:24:13;103196.53;;;5.01;100.00
58975;BME280;44751;52.236;5.178;2023-02-11T02:27:03;103184.13;;;5.00;100.00
58975;BME280;44751;52.236;5.178;2023-02-11T02:29:54;103185.66;;;5.04;100.00
58975;BME280;44751;52.236;5.178;2023-02-11T02:35:23;103174.28;;;5.00;100.00
58975;BME280;44751;52.236;5.178;2023-02-11T02:38:10;103159.69;;;5.06;100.00
58975;BME280;44751;52.236;5.178;2023-02-11T02:40:52;103169.28;;;5.26;100.00
58975;BME280;44751;52.236;5.178;2023-02-11T02:43:21;103167.22;;;5.15;100.00
58975;BME280;44751;52.236;5.178;2023-02-11T02:45:48;103171.84;;;5.12;100.00
58975;BME280;44751;52.236;5.178;2023-02-11T02:48:34;103171.00;;;5.11;100.00
58975;BME280;44751;52.236;5.178;2023-02-11T02:51:20;103173.25;;;5.19;100.00
58975;BME280;44751;52.236;5.178;2023-02-11T02:54:25;103186.38;;;5.24;100.00
58975;BME280;44751;52.236;5.178;2023-02-11T02:59:41;103173.31;;;5.17;100.00
58975;BME280;44751;52.236;5.178;2023-02-11T03:02:26;103185.78;;;5.19;100.00
58975;BME280;44751;52.236;5.178;2023-02-11T03:05:20;103176.16;;;5.14;100.00
58975;BME280;44751;52.236;5.178;2023-02-11T03:10:55;103162.97;;;4.95;100.00
58975;BME280;44751;52.236;5.178;2023-02-11T03:13:26;103169.03;;;4.99;100.00
58975;BME280;44751;52.236;5.178;2023-02-11T03:15:59;103161.00;;;4.99;100.00
58975;BME280;44751;52.236;5.178;2023-02-11T03:18:30;103163.13;;;4.92;100.00
58975;BME280;44751;52.236;5.178;2023-02-11T03:20:59;103156.47;;;4.83;100.00
58975;BME280;44751;52.236;5.178;2023-02-11T03:23:36;103157.06;;;4.72;100.00
58975;BME280;44751;52.236;5.178;2023-02-11T03:26:15;103142.38;;;4.63;100.00
58975;BME280;44751;52.236;5.178;2023-02-11T03:29:09;103143.00;;;4.69;100.00
58975;BME280;44751;52.236;5.178;2023-02-11T03:31:50;103144.91;;;4.67;100.00
58975;BME280;44751;52.236;5.178;2023-02-11T03:37:15;103144.25;;;4.61;100.00
58975;BME280;44751;52.236;5.178;2023-02-11T03:39:53;103143.34;;;4.62;100.00
58975;BME280;44751;52.236;5.178;2023-02-11T03:42:26;103135.41;;;4.61;100.00
58975;BME280;44751;52.236;5.178;2023-02-11T03:45:00;103120.03;;;4.64;100.00
58975;BME280;44751;52.236;5.178;2023-02-11T03:47:31;103122.94;;;4.60;100.00
58975;BME280;44751;52.236;5.178;2023-02-11T03:50:02;103137.28;;;4.59;100.00
58975;BME280;44751;52.236;5.178;2023-02-11T03:52:30;103140.31;;;4.69;100.00
58975;BME280;44751;52.236;5.178;2023-02-11T03:54:59;103134.19;;;4.67;100.00
58975;BME280;44751;52.236;5.178;2023-02-11T03:57:28;103130.78;;;4.81;100.00
58975;BME280;44751;52.236;5.178;2023-02-11T03:59:59;103138.88;;;4.79;100.00
58975;BME280;44751;52.236;5.178;2023-02-11T04:02:29;103140.88;;;4.91;100.00
58975;BME280;44751;52.236;5.178;2023-02-11T04:04:56;103145.25;;;4.93;100.00
58975;BME280;44751;52.236;5.178;2023-02-11T04:07:23;103141.91;;;4.89;100.00
58975;BME280;44751;52.236;5.178;2023-02-11T04:09:52;103132.13;;;4.88;100.00
58975;BME280;44751;52.236;5.178;2023-02-11T04:12:19;103142.84;;;4.88;100.00
58975;BME280;44751;52.236;5.178;2023-02-11T04:14:45;103143.47;;;4.93;100.00
58975;BME280;44751;52.236;5.178;2023-02-11T04:17:12;103140.06;;;4.89;100.00
58975;BME280;44751;52.236;5.178;2023-02-11T04:19:39;103131.22;;;4.89;100.00
58975;BME280;44751;52.236;5.178;2023-02-11T04:22:08;103129.47;;;4.88;100.00
58975;BME280;44751;52.236;5.178;2023-02-11T04:24:35;103135.59;;;4.90;100.00
58975;BME280;44751;52.236;5.178;2023-02-11T04:27:01;103133.88;;;4.89;100.00
58975;BME280;44751;52.236;5.178;2023-02-11T04:29:28;103140.44;;;4.99;100.00
58975;BME280;44751;52.236;5.178;2023-02-11T04:31:54;103139.66;;;4.97;100.00
58975;BME280;44751;52.236;5.178;2023-02-11T04:34:22;103151.84;;;5.03;100.00
58975;BME280;44751;52.236;5.178;2023-02-11T04:36:52;103151.41;;;4.95;100.00
58975;BME280;44751;52.236;5.178;2023-02-11T04:39:18;103152.00;;;5.00;100.00
58975;BME280;44751;52.236;5.178;2023-02-11T04:41:45;103148.28;;;5.02;100.00
58975;BME280;44751;52.236;5.178;2023-02-11T04:44:11;103152.59;;;5.05;100.00
58975;BME280;44751;52.236;5.178;2023-02-11T04:46:38;103153.13;;;4.96;100.00
58975;BME280;44751;52.236;5.178;2023-02-11T04:49:04;103152.78;;;5.02;100.00
58975;BME280;44751;52.236;5.178;2023-02-11T04:51:33;103163.22;;;5.07;100.00
58975;BME280;44751;52.236;5.178;2023-02-11T04:54:00;103164.34;;;5.02;100.00
58975;BME280;44751;52.236;5.178;2023-02-11T04:56:26;103175.31;;;5.14;100.00
58975;BME280;44751;52.236;5.178;2023-02-11T04:58:53;103165.81;;;5.08;100.00
58975;BME280;44751;52.236;5.178;2023-02-11T05:01:19;103171.00;;;5.11;100.00
58975;BME280;44751;52.236;5.178;2023-02-11T05:03:48;103170.81;;;5.14;100.00
58975;BME280;44751;52.236;5.178;2023-02-11T05:06:19;103167.97;;;5.17;100.00
58975;BME280;44751;52.236;5.178;2023-02-11T05:08:45;103160.91;;;5.16;100.00
58975;BME280;44751;52.236;5.178;2023-02-11T05:11:16;103169.19;;;5.12;100.00
58975;BME280;44751;52.236;5.178;2023-02-11T05:13:43;103170.56;;;5.19;100.00
58975;BME280;44751;52.236;5.178;2023-02-11T05:16:14;103170.31;;;5.24;100.00
58975;BME280;44751;52.236;5.178;2023-02-11T05:18:42;103154.00;;;5.12;100.00
58975;BME280;44751;52.236;5.178;2023-02-11T05:21:15;103162.97;;;5.11;100.00
58975;BME280;44751;52.236;5.178;2023-02-11T05:23:42;103154.75;;;5.14;100.00
58975;BME280;44751;52.236;5.178;2023-02-11T05:26:10;103161.88;;;5.15;100.00
58975;BME280;44751;52.236;5.178;2023-02-11T05:28:37;103162.22;;;5.25;100.00
58975;BME280;44751;52.236;5.178;2023-02-11T05:31:04;103165.06;;;5.22;100.00
58975;BME280;44751;52.236;5.178;2023-02-11T05:33:31;103160.56;;;5.23;100.00
58975;BME280;44751;52.236;5.178;2023-02-11T05:36:02;103169.72;;;5.19;100.00
58975;BME280;44751;52.236;5.178;2023-02-11T05:38:33;103158.75;;;5.23;100.00
58975;BME280;44751;52.236;5.178;2023-02-11T05:41:00;103155.81;;;5.28;100.00
58975;BME280;44751;52.236;5.178;2023-02-11T05:43:27;103161.00;;;5.31;100.00
58975;BME280;44751;52.236;5.178;2023-02-11T05:45:54;103160.28;;;5.27;100.00
58975;BME280;44751;52.236;5.178;2023-02-11T05:48:24;103164.00;;;5.25;100.00
58975;BME280;44751;52.236;5.178;2023-02-11T05:50:50;103160.81;;;5.34;100.00
58975;BME280;44751;52.236;5.178;2023-02-11T05:53:17;103155.19;;;5.39;100.00
58975;BME280;44751;52.236;5.178;2023-02-11T05:55:43;103159.78;;;5.37;100.00
58975;BME280;44751;52.236;5.178;2023-02-11T05:58:10;103154.66;;;5.48;100.00
58975;BME280;44751;52.236;5.178;2023-02-11T06:00:39;103170.13;;;5.43;100.00
58975;BME280;44751;52.236;5.178;2023-02-11T06:03:10;103173.59;;;5.45;100.00
58975;BME280;44751;52.236;5.178;2023-02-11T06:05:37;103174.19;;;5.50;100.00
58975;BME280;44751;52.236;5.178;2023-02-11T06:08:04;103171.09;;;5.42;100.00
58975;BME280;44751;52.236;5.178;2023-02-11T06:10:30;103186.03;;;5.46;100.00
58975;BME280;44751;52.236;5.178;2023-02-11T06:12:57;103177.28;;;5.42;100.00
58975;BME280;44751;52.236;5.178;2023-02-11T06:15:26;103173.41;;;5.48;100.00
58975;BME280;44751;52.236;5.178;2023-02-11T06:17:53;103184.28;;;5.61;100.00
58975;BME280;44751;52.236;5.178;2023-02-11T06:20:19;103175.91;;;5.51;100.00
58975;BME280;44751;52.236;5.178;2023-02-11T06:22:46;103186.63;;;5.51;100.00
58975;BME280;44751;52.236;5.178;2023-02-11T06:25:12;103186.19;;;5.43;100.00
58975;BME280;44751;52.236;5.178;2023-02-11T06:27:39;103183.88;;;5.53;100.00
58975;BME280;44751;52.236;5.178;2023-02-11T06:30:06;103182.72;;;5.57;100.00
58975;BME280;44751;52.236;5.178;2023-02-11T06:32:33;103181.97;;;5.55;100.00
58975;BME280;44751;52.236;5.178;2023-02-11T06:35:00;103181.19;;;5.53;100.00
58975;BME280;44751;52.236;5.178;2023-02-11T06:37:26;103165.91;;;5.55;100.00
58975;BME280;44751;52.236;5.178;2023-02-11T06:39:55;103173.41;;;5.64;100.00
58975;BME280;44751;52.236;5.178;2023-02-11T06:42:22;103168.13;;;5.63;100.00
58975;BME280;44751;52.236;5.178;2023-02-11T06:44:48;103186.97;;;5.61;100.00
58975;BME280;44751;52.236;5.178;2023-02-11T06:47:14;103173.03;;;5.71;100.00
58975;BME280;44751;52.236;5.178;2023-02-11T06:49:41;103170.31;;;5.56;100.00
58975;BME280;44751;52.236;5.178;2023-02-11T06:52:07;103183.25;;;5.64;100.00
58975;BME280;44751;52.236;5.178;2023-02-11T06:54:34;103175.03;;;5.67;100.00
58975;BME280;44751;52.236;5.178;2023-02-11T06:57:03;103173.97;;;5.69;100.00
58975;BME280;44751;52.236;5.178;2023-02-11T06:59:32;103171.22;;;5.71;100.00
58975;BME280;44751;52.236;5.178;2023-02-11T07:01:59;103176.75;;;5.68;100.00
58975;BME280;44751;52.236;5.178;2023-02-11T07:04:25;103171.06;;;5.74;100.00
58975;BME280;44751;52.236;5.178;2023-02-11T08:29:37;103215.97;;;6.46;100.00
58975;BME280;44751;52.236;5.178;2023-02-11T08:32:06;103227.50;;;6.49;100.00
58975;BME280;44751;52.236;5.178;2023-02-11T08:34:33;103227.97;;;6.55;100.00
58975;BME280;44751;52.236;5.178;2023-02-11T08:37:01;103236.69;;;6.44;100.00
58975;BME280;44751;52.236;5.178;2023-02-11T08:39:32;103237.81;;;6.55;100.00
58975;BME280;44751;52.236;5.178;2023-02-11T08:41:59;103243.09;;;6.56;100.00
58975;BME280;44751;52.236;5.178;2023-02-11T08:44:26;103241.13;;;6.60;100.00
58975;BME280;44751;52.236;5.178;2023-02-11T08:46:55;103249.56;;;6.68;100.00
58975;BME280;44751;52.236;5.178;2023-02-11T08:49:22;103248.94;;;6.63;100.00
58975;BME280;44751;52.236;5.178;2023-02-11T08:51:56;103250.78;;;6.77;100.00
58975;BME280;44751;52.236;5.178;2023-02-11T08:54:27;103240.53;;;6.69;100.00
58975;BME280;44751;52.236;5.178;2023-02-11T08:56:54;103250.13;;;6.74;100.00
58975;BME280;44751;52.236;5.178;2023-02-11T08:59:21;103255.41;;;6.75;100.00
58975;BME280;44751;52.236;5.178;2023-02-11T09:01:48;103254.25;;;6.79;100.00
58975;BME280;44751;52.236;5.178;2023-02-11T09:04:14;103251.97;;;6.88;100.00
58975;BME280;44751;52.236;5.178;2023-02-11T09:06:41;103256.00;;;6.95;100.00
58975;BME280;44751;52.236;5.178;2023-02-11T09:09:11;103250.81;;;6.92;100.00
58975;BME280;44751;52.236;5.178;2023-02-11T09:11:41;103257.88;;;6.93;100.00
58975;BME280;44751;52.236;5.178;2023-02-11T09:14:20;103266.06;;;7.06;100.00
58975;BME280;44751;52.236;5.178;2023-02-11T09:16:48;103263.72;;;7.00;100.00
58975;BME280;44751;52.236;5.178;2023-02-11T09:19:16;103267.28;;;7.00;100.00
58975;BME280;44751;52.236;5.178;2023-02-11T09:21:43;103279.94;;;6.98;100.00
58975;BME280;44751;52.236;5.178;2023-02-11T09:24:10;103286.16;;;6.98;100.00
58975;BME280;44751;52.236;5.178;2023-02-11T09:26:37;103275.91;;;7.05;100.00
58975;BME280;44751;52.236;5.178;2023-02-11T09:29:06;103282.81;;;7.09;100.00
58975;BME280;44751;52.236;5.178;2023-02-11T09:31:33;103279.47;;;7.06;100.00
58975;BME280;44751;52.236;5.178;2023-02-11T09:34:02;103293.47;;;7.11;100.00
58975;BME280;44751;52.236;5.178;2023-02-11T09:36:32;103286.47;;;7.23;100.00
58975;BME280;44751;52.236;5.178;2023-02-11T09:39:02;103290.09;;;7.36;100.00
58975;BME280;44751;52.236;5.178;2023-02-11T09:44:16;103280.78;;;7.28;100.00
58975;BME280;44751;52.236;5.178;2023-02-11T09:46:58;103283.84;;;7.36;100.00
58975;BME280;44751;52.236;5.178;2023-02-11T09:52:44;103297.38;;;7.49;100.00
58975;BME280;44751;52.236;5.178;2023-02-11T09:55:20;103296.13;;;7.55;100.00
58975;BME280;44751;52.236;5.178;2023-02-11T09:57:48;103305.91;;;7.56;100.00
58975;BME280;44751;52.236;5.178;2023-02-11T10:08:12;103324.13;;;8.07;100.00
58975;BME280;44751;52.236;5.178;2023-02-11T10:10:49;103339.63;;;7.89;100.00
58975;BME280;44751;52.236;5.178;2023-02-11T10:13:43;103329.53;;;7.93;100.00
58975;BME280;44751;52.236;5.178;2023-02-11T10:24:14;103341.09;;;7.80;100.00
58975;BME280;44751;52.236;5.178;2023-02-11T10:26:50;103336.78;;;7.78;100.00
58975;BME280;44751;52.236;5.178;2023-02-11T10:29:37;103337.63;;;7.78;100.00
58975;BME280;44751;52.236;5.178;2023-02-11T10:32:20;103339.56;;;7.76;100.00
58975;BME280;44751;52.236;5.178;2023-02-11T10:34:51;103350.13;;;7.79;100.00
58975;BME280;44751;52.236;5.178;2023-02-11T10:37:23;103347.47;;;7.92;100.00
58975;BME280;44751;52.236;5.178;2023-02-11T10:39:50;103362.78;;;7.92;100.00
58975;BME280;44751;52.236;5.178;2023-02-11T10:42:17;103347.91;;;7.86;100.00
58975;BME280;44751;52.236;5.178;2023-02-11T10:45:04;103351.03;;;7.93;100.00
58975;BME280;44751;52.236;5.178;2023-02-11T10:47:35;103359.47;;;8.01;100.00
58975;BME280;44751;52.236;5.178;2023-02-11T10:50:35;103357.25;;;8.35;100.00
58975;BME280;44751;52.236;5.178;2023-02-11T10:53:17;103356.63;;;8.45;100.00
58975;BME280;44751;52.236;5.178;2023-02-11T10:55:50;103365.88;;;8.40;100.00
58975;BME280;44751;52.236;5.178;2023-02-11T10:58:31;103361.59;;;8.51;100.00
58975;BME280;44751;52.236;5.178;2023-02-11T11:01:01;103364.28;;;8.51;100.00
58975;BME280;44751;52.236;5.178;2023-02-11T11:03:33;103368.75;;;8.65;100.00
58975;BME280;44751;52.236;5.178;2023-02-11T11:06:04;103355.53;;;8.75;100.00
58975;BME280;44751;52.236;5.178;2023-02-11T11:08:47;103357.38;;;8.87;100.00
58975;BME280;44751;52.236;5.178;2023-02-11T11:11:15;103360.75;;;8.91;100.00
58975;BME280;44751;52.236;5.178;2023-02-11T11:13:55;103363.31;;;8.80;100.00
58975;BME280;44751;52.236;5.178;2023-02-11T11:16:34;103352.00;;;8.74;100.00
58975;BME280;44751;52.236;5.178;2023-02-11T11:21:49;103378.63;;;8.92;100.00
58975;BME280;44751;52.236;5.178;2023-02-11T11:24:32;103375.41;;;9.00;100.00
58975;BME280;44751;52.236;5.178;2023-02-11T11:27:05;103370.69;;;9.16;100.00
58975;BME280;44751;52.236;5.178;2023-02-11T11:29:38;103371.53;;;9.43;100.00
58975;BME280;44751;52.236;5.178;2023-02-11T11:32:35;103385.28;;;9.64;100.00
58975;BME280;44751;52.236;5.178;2023-02-11T11:35:06;103388.22;;;9.35;100.00
58975;BME280;44751;52.236;5.178;2023-02-11T11:37:35;103391.25;;;9.43;100.00
58975;BME280;44751;52.236;5.178;2023-02-11T11:42:36;103389.97;;;9.36;100.00
58975;BME280;44751;52.236;5.178;2023-02-11T11:48:03;103391.06;;;9.21;100.00
58975;BME280;44751;52.236;5.178;2023-02-11T11:50:43;103378.09;;;9.13;100.00
58975;BME280;44751;52.236;5.178;2023-02-11T11:58:22;103390.41;;;9.30;100.00
58975;BME280;44751;52.236;5.178;2023-02-11T12:04:18;103383.81;;;9.34;100.00
58975;BME280;44751;52.236;5.178;2023-02-11T12:15:33;103384.47;;;9.88;100.00
58975;BME280;44751;52.236;5.178;2023-02-11T12:21:12;103376.44;;;9.75;100.00
58975;BME280;44751;52.236;5.178;2023-02-11T12:24:15;103380.97;;;9.75;100.00
58975;BME280;44751;52.236;5.178;2023-02-11T12:32:11;103375.75;;;9.98;100.00
58975;BME280;44751;52.236;5.178;2023-02-11T12:37:40;103377.56;;;9.60;100.00
58975;BME280;44751;52.236;5.178;2023-02-11T12:40:30;103363.06;;;9.87;100.00
58975;BME280;44751;52.236;5.178;2023-02-11T12:43:20;103369.69;;;9.94;100.00
58975;BME280;44751;52.236;5.178;2023-02-11T12:45:59;103382.94;;;10.10;100.00
58975;BME280;44751;52.236;5.178;2023-02-11T12:55:10;103380.66;;;10.04;100.00
58975;BME280;44751;52.236;5.178;2023-02-11T12:57:43;103377.75;;;10.07;100.00
58975;BME280;44751;52.236;5.178;2023-02-11T13:00:16;103386.53;;;9.98;100.00
58975;BME280;44751;52.236;5.178;2023-02-11T13:11:36;103376.94;;;9.93;100.00
58975;BME280;44751;52.236;5.178;2023-02-11T13:14:13;103358.41;;;9.89;100.00
58975;BME280;44751;52.236;5.178;2023-02-11T13:16:47;103360.78;;;9.80;100.00
58975;BME280;44751;52.236;5.178;2023-02-11T13:19:40;103360.19;;;9.64;100.00
58975;BME280;44751;52.236;5.178;2023-02-11T13:22:18;103362.97;;;9.75;100.00
58975;BME280;44751;52.236;5.178;2023-02-11T13:27:44;103356.50;;;9.65;100.00
58975;BME280;44751;52.236;5.178;2023-02-11T14:00:50;103350.78;;;9.69;100.00
